createdAt,value
2024-02-11T00:01:00.004Z,27.20
2024-02-11T00:02:36.092Z,27.20
2024-02-11T00:04:08.236Z,24.10
2024-02-11T00:05:45.843Z,27.40
2024-02-11T00:07:19.060Z,26.90
2024-02-11T00:08:52.662Z,21.67
2024-02-11T00:10:29.011Z,27.70
2024-02-11T00:12:00.903Z,22.83
2024-02-11T00:13:34.027Z,21.75
2024-02-11T00:15:08.558Z,24.02
2024-02-11T00:16:43.032Z,23.13
2024-02-11T00:18:15.560Z,21.38
2024-02-11T00:19:48.275Z,22.33
2024-02-11T00:21:23.510Z,23.23
2024-02-11T00:22:56.332Z,28.25
2024-02-11T00:24:31.148Z,23.35
2024-02-11T00:26:04.417Z,24.98
2024-02-11T00:27:36.458Z,20.48
2024-02-11T00:29:10.664Z,25.98
2024-02-11T00:30:42.574Z,21.60
2024-02-11T00:32:15.330Z,24.20
2024-02-11T00:33:48.071Z,17.88
2024-02-11T00:35:20.372Z,23.52
2024-02-11T00:36:57.491Z,26.95
2024-02-11T00:38:29.343Z,20.95
2024-02-11T00:40:02.209Z,21.95
2024-02-11T00:41:35.121Z,21.95
2024-02-11T00:43:09.897Z,21.42
2024-02-11T00:44:43.319Z,26.52
2024-02-11T00:46:16.555Z,22.70
2024-02-11T00:47:49.057Z,17.88
2024-02-11T00:49:21.903Z,22.58
2024-02-11T00:50:53.771Z,15.10
2024-02-11T00:52:27.830Z,19.80
2024-02-11T00:54:00.404Z,15.60
2024-02-11T00:55:34.973Z,15.32
2024-02-11T00:57:06.734Z,14.40
2024-02-11T00:58:39.473Z,14.57
2024-02-11T01:00:13.544Z,16.02
2024-02-11T01:01:45.066Z,14.73
2024-02-11T01:03:17.537Z,12.73
2024-02-11T01:04:49.162Z,16.30
2024-02-11T01:06:21.682Z,14.50
2024-02-11T01:07:54.613Z,11.40
2024-02-11T01:09:27.466Z,12.50
2024-02-11T01:11:00.040Z,12.10
2024-02-11T01:12:31.596Z,11.50
2024-02-11T01:14:04.128Z,11.13
2024-02-11T01:15:36.795Z,12.32
2024-02-11T01:17:09.452Z,12.68
2024-02-11T01:18:41.272Z,12.77
2024-02-11T01:20:17.302Z,9.47
2024-02-11T01:21:49.862Z,10.77
2024-02-11T01:23:22.713Z,11.00
2024-02-11T01:24:55.220Z,12.35
2024-02-11T01:26:26.709Z,10.95
2024-02-11T01:27:59.229Z,9.50
2024-02-11T01:29:30.723Z,10.00
2024-02-11T01:31:03.193Z,9.35
2024-02-11T01:32:34.737Z,7.55
2024-02-11T01:34:07.262Z,7.57
2024-02-11T01:35:40.627Z,7.73
2024-02-11T01:37:12.116Z,6.78
2024-02-11T01:38:45.886Z,6.65
2024-02-11T01:40:18.545Z,5.80
2024-02-11T01:41:51.051Z,6.28
2024-02-11T01:43:22.923Z,6.83
2024-02-11T01:44:57.689Z,7.97
2024-02-11T01:46:29.214Z,4.68
2024-02-11T01:48:01.759Z,5.00
2024-02-11T01:49:35.123Z,4.03
2024-02-11T01:51:07.651Z,2.40
2024-02-11T01:52:40.229Z,3.60
2024-02-11T01:54:18.653Z,4.70
2024-02-11T01:55:51.118Z,2.83
2024-02-11T01:57:23.930Z,3.08
2024-02-11T01:58:56.104Z,3.33
2024-02-11T02:00:29.627Z,3.00
2024-02-11T02:02:01.194Z,2.17
2024-02-11T02:03:33.856Z,3.47
2024-02-11T02:05:08.480Z,2.20
2024-02-11T02:06:42.150Z,3.00
2024-02-11T02:08:14.056Z,2.45
2024-02-11T02:09:48.359Z,2.63
2024-02-11T02:11:20.603Z,1.90
2024-02-11T02:12:53.163Z,2.22
2024-02-11T02:14:24.879Z,3.47
2024-02-11T02:15:57.382Z,2.70
2024-02-11T02:17:28.912Z,2.78
2024-02-11T02:19:02.846Z,3.55
2024-02-11T02:20:34.454Z,2.67
2024-02-11T02:22:08.531Z,1.50
2024-02-11T02:23:40.047Z,3.90
2024-02-11T02:25:12.711Z,3.22
2024-02-11T02:26:44.248Z,1.90
2024-02-11T02:28:16.755Z,3.00
2024-02-11T02:29:48.458Z,2.80
2024-02-11T02:31:22.747Z,1.77
2024-02-11T02:32:54.338Z,3.22
2024-02-11T02:34:26.938Z,2.63
2024-02-11T02:35:58.530Z,4.05
2024-02-11T02:37:32.689Z,3.70
2024-02-11T02:39:04.464Z,3.45
2024-02-11T02:40:37.006Z,2.47
2024-02-11T02:42:09.749Z,2.70
2024-02-11T02:43:42.310Z,2.33
2024-02-11T02:45:14.182Z,2.30
2024-02-11T02:46:46.674Z,1.48
2024-02-11T02:48:18.338Z,1.38
2024-02-11T02:49:50.947Z,2.50
2024-02-11T02:51:22.498Z,1.38
2024-02-11T02:52:56.422Z,1.20
2024-02-11T02:54:28.038Z,1.75
2024-02-11T02:56:00.631Z,0.88
2024-02-11T02:57:34.715Z,3.38
2024-02-11T02:59:10.073Z,1.60
2024-02-11T03:00:42.992Z,1.67
2024-02-11T03:02:14.782Z,1.83
2024-02-11T03:03:49.779Z,1.02
2024-02-11T03:05:23.340Z,1.27
2024-02-11T03:06:57.058Z,1.05
2024-02-11T03:08:29.982Z,1.00
2024-02-11T03:10:05.415Z,0.60
2024-02-11T03:11:38.812Z,0.88
2024-02-11T03:13:11.332Z,1.02
2024-02-11T03:14:42.895Z,1.20
2024-02-11T03:16:16.614Z,4.87
2024-02-11T03:17:49.923Z,2.15
2024-02-11T03:19:22.473Z,1.27
2024-02-11T03:20:54.011Z,1.45
2024-02-11T03:22:27.394Z,1.00
2024-02-11T03:24:01.228Z,1.40
2024-02-11T03:25:33.750Z,0.95
2024-02-11T03:27:05.608Z,1.52
2024-02-11T03:28:38.206Z,1.55
2024-02-11T03:30:12.003Z,1.10
2024-02-11T03:31:44.609Z,0.70
2024-02-11T03:33:16.184Z,0.88
2024-02-11T03:34:48.750Z,0.40
2024-02-11T03:36:20.438Z,0.63
2024-02-11T03:37:52.993Z,0.82
2024-02-11T03:39:25.986Z,1.30
2024-02-11T03:40:58.696Z,0.77
2024-02-11T03:42:30.230Z,0.57
2024-02-11T03:44:03.273Z,0.30
2024-02-11T03:45:34.844Z,0.88
2024-02-11T03:47:07.795Z,0.60
2024-02-11T03:48:39.408Z,0.28
2024-02-11T03:50:15.094Z,0.50
2024-02-11T03:51:47.304Z,0.40
2024-02-11T03:53:22.038Z,0.30
2024-02-11T03:54:56.324Z,0.40
2024-02-11T03:56:30.094Z,0.10
2024-02-11T03:58:05.414Z,0.77
2024-02-11T03:59:37.872Z,0.70
2024-02-11T04:01:09.389Z,0.43
2024-02-11T04:02:42.050Z,0.87
2024-02-11T04:04:14.869Z,0.75
2024-02-11T04:05:48.241Z,0.40
2024-02-11T04:07:21.188Z,0.88
2024-02-11T04:08:53.661Z,0.30
2024-02-11T04:10:29.753Z,0.20
2024-02-11T04:12:02.749Z,0.75
2024-02-11T04:13:34.306Z,0.10
2024-02-11T04:15:10.750Z,0.98
2024-02-11T04:16:44.613Z,0.73
2024-02-11T04:18:22.377Z,0.97
2024-02-11T04:19:54.134Z,0.10
2024-02-11T04:21:26.627Z,0.20
2024-02-11T04:22:59.967Z,0.68
2024-02-11T04:24:32.882Z,0.30
2024-02-11T04:26:08.834Z,0.10
2024-02-11T04:27:42.517Z,0.52
2024-02-11T04:29:15.706Z,0.08
2024-02-11T04:30:48.391Z,0.65
2024-02-11T04:32:23.597Z,0.25
2024-02-11T04:33:56.131Z,0.20
2024-02-11T04:35:27.690Z,0.10
2024-02-11T04:37:02.433Z,0.10
2024-02-11T04:38:35.761Z,0.10
2024-02-11T04:40:11.100Z,0.50
2024-02-11T04:41:44.861Z,0.10
2024-02-11T04:43:16.357Z,0.10
2024-02-11T04:44:48.847Z,0.10
2024-02-11T04:46:21.788Z,0.25
2024-02-11T04:47:55.501Z,0.00
2024-02-11T04:49:29.823Z,0.40
2024-02-11T04:51:03.871Z,0.10
2024-02-11T04:52:36.429Z,0.43
2024-02-11T04:54:09.033Z,0.20
2024-02-11T04:55:41.763Z,6.00
2024-02-11T04:57:17.366Z,4.73
2024-02-11T04:58:49.009Z,5.47
2024-02-11T05:00:27.283Z,4.35
2024-02-11T05:01:59.693Z,4.28
2024-02-11T05:03:32.326Z,4.68
2024-02-11T05:05:05.457Z,5.23
2024-02-11T05:06:39.282Z,5.05
2024-02-11T05:08:11.827Z,5.82
2024-02-11T05:09:46.258Z,5.20
2024-02-11T05:11:17.832Z,5.75
2024-02-11T05:12:52.051Z,4.80
2024-02-11T05:14:23.627Z,2.50
2024-02-11T05:16:00.512Z,5.25
2024-02-11T05:17:32.036Z,5.45
2024-02-11T05:19:06.367Z,3.35
2024-02-11T05:20:38.264Z,3.70
2024-02-11T05:22:10.988Z,6.65
2024-02-11T05:23:48.215Z,4.60
2024-02-11T05:25:23.530Z,3.17
2024-02-11T05:26:56.020Z,2.25
2024-02-11T05:28:30.310Z,2.97
2024-02-11T05:30:02.780Z,5.82
2024-02-11T05:31:35.256Z,5.25
2024-02-11T05:33:07.797Z,5.50
2024-02-11T05:34:40.579Z,4.47
2024-02-11T05:36:14.507Z,5.93
2024-02-11T05:37:47.391Z,4.10
2024-02-11T05:39:20.331Z,4.50
2024-02-11T05:40:58.292Z,4.80
2024-02-11T05:42:31.466Z,3.75
2024-02-11T05:44:05.324Z,4.23
2024-02-11T05:45:37.801Z,2.40
2024-02-11T05:47:10.335Z,3.08
2024-02-11T05:48:42.678Z,3.05
2024-02-11T05:50:16.549Z,4.10
2024-02-11T05:51:48.715Z,2.77
2024-02-11T05:53:21.400Z,2.75
2024-02-11T05:54:53.004Z,5.63
2024-02-11T05:56:25.698Z,2.03
2024-02-11T05:57:57.470Z,2.95
2024-02-11T05:59:31.316Z,3.30
2024-02-11T06:01:05.524Z,6.07
2024-02-11T06:02:38.212Z,2.97
2024-02-11T06:04:09.812Z,5.20
2024-02-11T06:05:43.542Z,5.38
2024-02-11T06:07:15.400Z,3.47
2024-02-11T06:08:49.064Z,2.15
2024-02-11T06:10:21.272Z,3.92
2024-02-11T06:11:55.000Z,4.05
2024-02-11T06:13:27.761Z,6.03
2024-02-11T06:15:02.262Z,4.50
2024-02-11T06:16:33.873Z,4.32
2024-02-11T06:18:07.672Z,3.33
2024-02-11T06:19:40.731Z,5.75
2024-02-11T06:21:13.273Z,5.88
2024-02-11T06:22:45.661Z,3.30
2024-02-11T06:24:18.820Z,2.88
2024-02-11T06:25:53.439Z,7.05
2024-02-11T06:27:25.693Z,4.47
2024-02-11T06:28:59.753Z,4.13
2024-02-11T06:30:33.031Z,4.37
2024-02-11T06:32:06.078Z,5.10
2024-02-11T06:33:37.961Z,6.43
2024-02-11T06:35:11.282Z,3.65
2024-02-11T06:36:42.832Z,5.72
2024-02-11T06:38:15.446Z,6.60
2024-02-11T06:39:47.997Z,4.00
2024-02-11T06:41:22.019Z,6.28
2024-02-11T06:42:53.943Z,8.52
2024-02-11T06:44:27.759Z,6.43
2024-02-11T06:46:00.618Z,8.90
2024-02-11T06:47:35.792Z,9.20
2024-02-11T06:49:07.928Z,7.63
2024-02-11T06:50:40.526Z,10.38
2024-02-11T06:52:12.895Z,7.32
2024-02-11T06:53:45.894Z,10.20
2024-02-11T06:55:19.558Z,8.07
2024-02-11T06:56:53.459Z,9.77
2024-02-11T06:58:25.929Z,11.60
2024-02-11T06:59:58.753Z,9.80
2024-02-11T07:01:32.575Z,8.43
2024-02-11T07:03:04.598Z,12.00
2024-02-11T07:04:37.467Z,15.93
2024-02-11T07:06:11.138Z,13.70
2024-02-11T07:07:45.263Z,10.10
2024-02-11T07:09:19.721Z,11.53
2024-02-11T07:10:52.373Z,14.60
2024-02-11T07:12:23.946Z,7.63
2024-02-11T07:13:56.681Z,10.70
2024-02-11T07:15:28.598Z,11.30
2024-02-11T07:17:02.532Z,12.27
2024-02-11T07:18:35.102Z,12.80
2024-02-11T07:20:09.853Z,11.70
2024-02-11T07:21:42.543Z,12.93
2024-02-11T07:23:15.805Z,12.38
2024-02-11T07:24:48.476Z,12.47
2024-02-11T07:26:20.332Z,13.77
2024-02-11T07:27:52.938Z,10.23
2024-02-11T07:29:28.941Z,11.77
2024-02-11T07:31:00.674Z,10.43
2024-02-11T07:32:34.654Z,8.23
2024-02-11T07:34:07.041Z,13.90
2024-02-11T07:35:40.134Z,12.73
2024-02-11T07:37:12.899Z,8.38
2024-02-11T07:38:44.706Z,12.30
2024-02-11T07:40:17.817Z,8.00
2024-02-11T07:41:49.430Z,8.15
2024-02-11T07:43:23.996Z,8.55
2024-02-11T07:44:56.856Z,9.98
2024-02-11T07:46:30.725Z,8.63
2024-02-11T07:48:08.886Z,7.70
2024-02-11T07:49:41.512Z,7.30
2024-02-11T07:51:15.301Z,11.18
2024-02-11T07:52:49.217Z,8.70
2024-02-11T07:54:24.591Z,6.13
2024-02-11T07:55:57.347Z,10.00
2024-02-11T07:57:29.459Z,7.60
2024-02-11T07:59:01.973Z,10.02
2024-02-11T08:00:33.599Z,9.88
2024-02-11T08:02:06.223Z,6.55
2024-02-11T08:03:39.248Z,11.40
2024-02-11T08:05:13.068Z,9.07
2024-02-11T08:06:44.888Z,7.57
2024-02-11T08:08:17.430Z,5.07
2024-02-11T08:09:48.943Z,5.97
2024-02-11T08:11:22.024Z,7.43
2024-02-11T08:12:53.880Z,9.48
2024-02-11T08:14:26.595Z,5.65
2024-02-11T08:15:58.110Z,6.63
2024-02-11T08:17:30.684Z,7.00
2024-02-11T08:19:04.594Z,11.47
2024-02-11T08:20:37.219Z,5.18
2024-02-11T08:22:09.803Z,5.40
2024-02-11T08:23:42.306Z,6.45
2024-02-11T08:25:14.167Z,5.75
2024-02-11T08:26:48.369Z,5.57
2024-02-11T08:28:19.961Z,5.72
2024-02-11T08:29:53.306Z,4.32
2024-02-11T08:31:25.772Z,5.22
2024-02-11T08:32:59.133Z,5.43
2024-02-11T08:34:32.969Z,6.23
2024-02-11T08:36:04.777Z,4.85
2024-02-11T08:37:37.448Z,3.25
2024-02-11T08:39:11.284Z,2.45
2024-02-11T08:40:44.589Z,5.72
2024-02-11T08:42:16.173Z,4.10
2024-02-11T08:43:48.710Z,3.72
2024-02-11T08:45:21.493Z,3.50
2024-02-11T08:46:53.273Z,3.88
2024-02-11T08:48:26.010Z,3.65
2024-02-11T08:49:58.954Z,4.20
2024-02-11T08:51:32.273Z,2.60
2024-02-11T08:53:04.030Z,4.28
2024-02-11T08:54:37.666Z,2.45
2024-02-11T08:56:11.225Z,4.20
2024-02-11T08:57:45.562Z,2.20
2024-02-11T08:59:17.756Z,1.70
2024-02-11T09:00:51.124Z,2.88
2024-02-11T09:02:23.331Z,1.65
2024-02-11T09:03:55.809Z,3.40
2024-02-11T09:05:31.024Z,2.60
2024-02-11T09:07:03.612Z,3.28
2024-02-11T09:08:36.153Z,3.58
2024-02-11T09:10:08.460Z,2.92
2024-02-11T09:11:41.536Z,5.90
2024-02-11T09:13:13.059Z,2.13
2024-02-11T09:14:45.564Z,6.50
2024-02-11T09:16:20.367Z,4.55
2024-02-11T09:17:52.060Z,2.30
2024-02-11T09:19:25.994Z,2.10
2024-02-11T09:20:59.927Z,5.57
2024-02-11T09:22:33.272Z,3.92
2024-02-11T09:24:06.347Z,1.42
2024-02-11T09:25:40.029Z,2.75
2024-02-11T09:27:13.753Z,3.38
2024-02-11T09:28:46.314Z,1.80
2024-02-11T09:30:18.556Z,3.65
2024-02-11T09:31:51.353Z,1.98
2024-02-11T09:33:25.215Z,4.90
2024-02-11T09:34:57.630Z,1.10
2024-02-11T09:36:31.447Z,0.60
2024-02-11T09:38:02.994Z,1.45
2024-02-11T09:39:35.513Z,1.60
2024-02-11T09:41:07.648Z,0.70
2024-02-11T09:42:40.428Z,1.30
2024-02-11T09:44:14.212Z,2.80
2024-02-11T09:45:47.993Z,3.38
2024-02-11T09:47:22.037Z,4.55
2024-02-11T09:48:57.430Z,1.70
2024-02-11T09:50:31.682Z,4.68
2024-02-11T09:52:05.897Z,3.93
2024-02-11T09:53:40.909Z,1.13
2024-02-11T09:55:14.308Z,5.13
2024-02-11T09:56:45.977Z,1.92
2024-02-11T09:58:18.978Z,2.08
2024-02-11T09:59:50.563Z,2.50
2024-02-11T10:01:23.518Z,0.98
2024-02-11T10:02:56.063Z,1.10
2024-02-11T10:04:31.545Z,2.38
2024-02-11T10:06:03.710Z,1.45
2024-02-11T10:07:44.948Z,0.63
2024-02-11T10:09:20.003Z,1.60
2024-02-11T10:10:52.880Z,2.45
2024-02-11T10:12:25.451Z,1.50
2024-02-11T10:14:00.393Z,1.08
2024-02-11T10:15:36.177Z,2.40
2024-02-11T10:17:08.858Z,2.83
2024-02-11T10:18:41.889Z,1.35
2024-02-11T10:20:15.268Z,1.60
2024-02-11T10:21:48.489Z,0.60
2024-02-11T10:23:25.439Z,4.33
2024-02-11T10:24:58.258Z,2.40
2024-02-11T10:26:32.637Z,3.10
2024-02-11T10:28:05.746Z,2.08
2024-02-11T10:29:38.871Z,2.63
2024-02-11T10:31:10.519Z,2.67
2024-02-11T10:32:43.439Z,2.50
2024-02-11T10:34:15.551Z,4.57
2024-02-11T10:35:49.415Z,2.83
2024-02-11T10:37:20.957Z,2.10
2024-02-11T10:38:55.187Z,0.93
2024-02-11T10:40:27.157Z,2.00
2024-02-11T10:41:59.776Z,1.30
2024-02-11T10:43:33.457Z,2.67
2024-02-11T10:45:05.721Z,4.20
2024-02-11T10:46:38.217Z,6.28
2024-02-11T10:48:10.386Z,1.55
2024-02-11T10:49:43.143Z,1.00
2024-02-11T10:51:24.189Z,2.50
2024-02-11T10:53:01.947Z,2.33
2024-02-11T10:54:43.515Z,3.47
2024-02-11T10:56:18.494Z,3.40
2024-02-11T10:57:53.453Z,2.38
2024-02-11T10:59:34.376Z,0.60
2024-02-11T11:01:09.721Z,0.90
2024-02-11T11:02:44.038Z,1.50
2024-02-11T11:04:21.838Z,1.43
2024-02-11T11:05:55.843Z,1.77
2024-02-11T11:07:34.244Z,3.55
2024-02-11T11:09:09.285Z,2.28
2024-02-11T11:10:42.527Z,0.85
2024-02-11T11:12:17.534Z,1.83
2024-02-11T11:13:50.253Z,1.40
2024-02-11T11:15:27.497Z,3.88
2024-02-11T11:17:05.619Z,2.15
2024-02-11T11:18:38.861Z,0.63
2024-02-11T11:20:14.118Z,1.13
2024-02-11T11:21:53.370Z,1.52
2024-02-11T11:23:28.085Z,2.42
2024-02-11T11:25:01.270Z,2.13
2024-02-11T11:26:35.554Z,1.40
2024-02-11T11:28:16.311Z,1.70
2024-02-11T11:29:49.273Z,1.10
2024-02-11T11:31:24.282Z,3.67
2024-02-11T11:32:56.653Z,3.65
2024-02-11T11:34:30.346Z,1.65
2024-02-11T11:36:02.949Z,2.67
2024-02-11T11:37:35.663Z,2.97
2024-02-11T11:39:07.980Z,0.90
2024-02-11T11:40:41.494Z,1.35
2024-02-11T11:42:15.416Z,1.20
2024-02-11T11:44:00.786Z,0.75
2024-02-11T11:45:34.046Z,0.98
2024-02-11T11:47:07.771Z,2.10
2024-02-11T11:48:41.113Z,2.42
2024-02-11T11:50:15.154Z,4.00
2024-02-11T11:51:48.852Z,0.43
2024-02-11T11:53:20.980Z,4.50
2024-02-11T11:54:53.637Z,0.77
2024-02-11T11:56:25.263Z,2.33
2024-02-11T11:58:00.088Z,2.22
2024-02-11T11:59:31.721Z,1.27
2024-02-11T12:01:06.863Z,3.88
2024-02-11T12:02:39.138Z,4.47
2024-02-11T12:04:11.785Z,1.30
2024-02-11T12:05:43.564Z,2.90
2024-02-11T12:07:16.219Z,5.65
2024-02-11T12:08:48.740Z,6.07
2024-02-11T12:10:20.251Z,4.00
2024-02-11T12:11:52.723Z,2.50
2024-02-11T12:13:27.307Z,2.25
2024-02-11T12:15:00.158Z,2.33
2024-02-11T12:16:32.650Z,2.42
2024-02-11T12:18:10.764Z,1.63
2024-02-11T12:19:44.174Z,3.15
2024-02-11T12:21:16.447Z,2.90
2024-02-11T12:22:48.974Z,1.92
2024-02-11T12:24:22.997Z,1.43
2024-02-11T12:25:56.680Z,3.53
2024-02-11T12:27:28.750Z,2.60
2024-02-11T12:29:02.675Z,4.63
2024-02-11T12:30:34.601Z,1.23
2024-02-11T12:32:10.964Z,1.43
2024-02-11T12:33:43.970Z,3.22
2024-02-11T12:35:16.588Z,1.58
2024-02-11T12:36:48.279Z,1.23
2024-02-11T12:38:22.253Z,2.05
2024-02-11T12:39:55.711Z,3.10
2024-02-11T12:41:30.279Z,1.85
2024-02-11T12:43:04.408Z,2.78
2024-02-11T12:44:38.980Z,2.63
2024-02-11T12:46:11.193Z,0.90
2024-02-11T12:47:44.201Z,2.00
2024-02-11T12:49:16.882Z,2.63
2024-02-11T12:50:57.701Z,3.55
2024-02-11T12:52:30.543Z,2.03
2024-02-11T12:54:03.130Z,4.28
2024-02-11T12:55:34.696Z,1.17
2024-02-11T12:57:07.167Z,1.80
2024-02-11T12:58:39.163Z,1.85
2024-02-11T13:00:16.233Z,0.88
2024-02-11T13:01:48.038Z,2.22
2024-02-11T13:03:20.572Z,2.22
2024-02-11T13:04:53.181Z,2.22
2024-02-11T13:06:24.787Z,1.95
2024-02-11T13:07:57.365Z,1.95
2024-02-11T13:09:28.931Z,3.30
2024-02-11T13:11:02.047Z,4.25
2024-02-11T13:12:39.256Z,2.92
2024-02-11T13:14:13.247Z,2.38
2024-02-11T13:15:46.658Z,0.82
2024-02-11T13:17:19.445Z,2.20
2024-02-11T13:18:52.678Z,2.08
2024-02-11T13:20:24.639Z,0.43
2024-02-11T13:21:57.294Z,1.27
2024-02-11T13:23:29.809Z,1.67
2024-02-11T13:25:01.568Z,2.15
2024-02-11T13:26:34.636Z,1.75
2024-02-11T13:28:06.748Z,2.10
2024-02-11T13:29:40.604Z,0.75
2024-02-11T13:31:23.669Z,4.32
2024-02-11T13:32:59.103Z,1.58
2024-02-11T13:34:32.345Z,0.77
2024-02-11T13:36:05.574Z,0.57
2024-02-11T13:37:38.724Z,1.92
2024-02-11T13:39:14.886Z,0.90
2024-02-11T13:40:47.578Z,1.15
2024-02-11T13:42:19.137Z,1.23
2024-02-11T13:43:51.645Z,0.50
2024-02-11T13:45:23.309Z,1.83
2024-02-11T13:46:57.166Z,0.40
2024-02-11T13:48:29.735Z,1.75
2024-02-11T13:50:01.606Z,2.22
2024-02-11T13:51:34.191Z,2.00
2024-02-11T13:53:07.539Z,0.40
2024-02-11T13:54:40.119Z,0.43
2024-02-11T13:56:13.131Z,1.48
2024-02-11T13:57:45.815Z,1.08
2024-02-11T13:59:17.406Z,0.90
2024-02-11T14:00:51.346Z,0.45
2024-02-11T14:02:24.366Z,1.02
2024-02-11T14:03:57.578Z,2.45
2024-02-11T14:05:29.269Z,1.00
2024-02-11T14:07:02.452Z,1.85
2024-02-11T14:08:34.285Z,2.45
2024-02-11T14:10:07.633Z,0.65
2024-02-11T14:11:39.449Z,1.75
2024-02-11T14:13:12.445Z,2.65
2024-02-11T14:14:44.865Z,0.43
2024-02-11T14:16:17.598Z,1.17
2024-02-11T14:17:51.643Z,1.98
2024-02-11T14:19:24.782Z,0.75
2024-02-11T14:20:57.829Z,8.75
2024-02-11T14:22:29.525Z,3.17
2024-02-11T14:24:02.518Z,0.95
2024-02-11T14:25:35.182Z,1.95
2024-02-11T14:27:07.022Z,0.75
2024-02-11T14:28:40.377Z,1.40
2024-02-11T14:30:13.681Z,0.57
2024-02-11T14:31:47.003Z,0.90
2024-02-11T14:33:21.426Z,0.53
2024-02-11T14:34:53.303Z,2.90
2024-02-11T14:36:26.358Z,0.57
2024-02-11T14:37:58.441Z,0.35
2024-02-11T14:39:31.716Z,2.17
2024-02-11T14:41:04.434Z,1.30
2024-02-11T14:42:37.737Z,0.77
2024-02-11T14:44:11.303Z,2.75
2024-02-11T14:45:44.180Z,3.88
2024-02-11T14:47:16.484Z,0.75
2024-02-11T14:48:52.456Z,1.27
2024-02-11T14:50:26.081Z,1.40
2024-02-11T14:52:00.049Z,1.00
2024-02-11T14:53:33.453Z,5.88
2024-02-11T14:55:07.832Z,0.98
2024-02-11T14:56:44.020Z,1.45
2024-02-11T14:58:19.113Z,1.75
2024-02-11T14:59:52.482Z,2.25
2024-02-11T15:01:25.973Z,1.52
2024-02-11T15:02:57.881Z,1.65
2024-02-11T15:04:32.242Z,0.50
2024-02-11T15:06:05.507Z,1.58
2024-02-11T15:07:38.906Z,0.80
2024-02-11T15:09:10.743Z,0.40
2024-02-11T15:10:44.356Z,0.65
2024-02-11T15:12:18.792Z,3.60
2024-02-11T15:13:52.424Z,1.98
2024-02-11T15:15:24.237Z,0.77
2024-02-11T15:16:57.232Z,1.33
2024-02-11T15:18:29.029Z,2.80
2024-02-11T15:20:03.395Z,2.22
2024-02-11T15:21:35.023Z,1.15
2024-02-11T15:23:07.740Z,1.27
2024-02-11T15:24:40.092Z,0.70
2024-02-11T15:26:13.243Z,3.58
2024-02-11T15:27:45.125Z,3.78
2024-02-11T15:29:17.698Z,2.60
2024-02-11T15:30:49.293Z,2.27
2024-02-11T15:32:24.087Z,2.45
2024-02-11T15:33:57.368Z,2.00
2024-02-11T15:35:35.961Z,1.83
2024-02-11T15:37:12.405Z,1.05
2024-02-11T15:38:45.047Z,3.13
2024-02-11T15:40:17.645Z,0.55
2024-02-11T15:41:51.369Z,2.97
2024-02-11T15:43:23.099Z,1.40
2024-02-11T15:44:55.624Z,0.50
2024-02-11T15:46:27.383Z,1.17
2024-02-11T15:47:59.919Z,2.78
2024-02-11T15:49:31.569Z,1.52
2024-02-11T15:51:06.229Z,1.85
2024-02-11T15:52:37.758Z,0.88
2024-02-11T15:54:12.064Z,0.88
2024-02-11T15:55:45.445Z,0.75
2024-02-11T15:57:18.113Z,2.33
2024-02-11T15:58:50.767Z,1.05
2024-02-11T16:00:24.709Z,0.30
2024-02-11T16:01:56.314Z,0.57
2024-02-11T16:03:29.059Z,0.23
2024-02-11T16:05:00.712Z,1.63
2024-02-11T16:06:34.746Z,2.58
2024-02-11T16:08:07.124Z,0.60
2024-02-11T16:09:40.355Z,0.35
2024-02-11T16:11:12.209Z,1.20
2024-02-11T16:12:46.357Z,0.50
2024-02-11T16:14:18.428Z,0.57
2024-02-11T16:15:51.038Z,0.52
2024-02-11T16:17:22.961Z,0.47
2024-02-11T16:18:55.894Z,3.53
2024-02-11T16:20:29.672Z,1.55
2024-02-11T16:22:04.294Z,0.50
2024-02-11T16:23:35.812Z,1.45
2024-02-11T16:25:08.857Z,1.10
2024-02-11T16:26:44.802Z,1.33
2024-02-11T16:28:17.590Z,0.68
2024-02-11T16:29:51.247Z,1.20
2024-02-11T16:31:24.720Z,1.13
2024-02-11T16:32:58.940Z,1.05
2024-02-11T16:34:31.478Z,0.57
2024-02-11T16:36:03.994Z,1.33
2024-02-11T16:37:38.035Z,0.82
2024-02-11T16:39:11.083Z,1.08
2024-02-11T16:40:44.097Z,1.17
2024-02-11T16:42:15.676Z,0.95
2024-02-11T16:43:48.549Z,2.22
2024-02-11T16:45:20.287Z,3.22
2024-02-11T16:46:52.804Z,1.23
2024-02-11T16:48:24.674Z,1.00
2024-02-11T16:49:57.314Z,1.20
2024-02-11T16:51:29.243Z,0.63
2024-02-11T16:53:03.180Z,0.32
2024-02-11T16:54:34.940Z,2.63
2024-02-11T16:56:14.821Z,1.45
2024-02-11T16:57:46.368Z,3.28
2024-02-11T16:59:18.943Z,0.30
2024-02-11T17:00:51.732Z,3.35
2024-02-11T17:02:23.441Z,1.35
2024-02-11T17:04:01.011Z,1.67
2024-02-11T17:05:34.265Z,0.43
2024-02-11T17:07:08.282Z,1.30
2024-02-11T17:08:42.167Z,4.60
2024-02-11T17:10:14.215Z,2.25
2024-02-11T17:11:47.412Z,0.45
2024-02-11T17:13:19.112Z,4.75
2024-02-11T17:14:51.668Z,2.85
2024-02-11T17:16:23.211Z,0.60
2024-02-11T17:17:55.907Z,1.25
2024-02-11T17:19:28.526Z,2.35
2024-02-11T17:21:10.067Z,1.52
2024-02-11T17:22:44.774Z,3.27
2024-02-11T17:24:18.752Z,1.08
2024-02-11T17:25:52.447Z,1.48
2024-02-11T17:27:24.941Z,1.85
2024-02-11T17:28:58.621Z,3.55
2024-02-11T17:30:31.281Z,3.47
2024-02-11T17:32:09.892Z,4.88
2024-02-11T17:33:48.688Z,1.70
2024-02-11T17:35:21.537Z,2.28
2024-02-11T17:36:54.318Z,1.10
2024-02-11T17:38:28.159Z,3.60
2024-02-11T17:40:01.063Z,3.78
2024-02-11T17:41:36.559Z,1.48
2024-02-11T17:43:10.646Z,1.33
2024-02-11T17:44:44.718Z,2.50
2024-02-11T17:46:16.280Z,1.00
2024-02-11T17:47:52.846Z,1.58
2024-02-11T17:49:24.494Z,2.88
2024-02-11T17:50:58.043Z,1.42
2024-02-11T17:52:30.747Z,1.45
2024-02-11T17:54:04.793Z,1.10
2024-02-11T17:55:38.963Z,2.72
2024-02-11T17:57:11.749Z,2.90
2024-02-11T17:58:46.340Z,1.50
2024-02-11T18:00:20.762Z,1.85
2024-02-11T18:01:53.899Z,1.30
2024-02-11T18:03:27.890Z,3.85
2024-02-11T18:04:59.920Z,2.47
2024-02-11T18:06:32.544Z,1.27
2024-02-11T18:08:04.596Z,1.20
2024-02-11T18:09:37.092Z,0.83
2024-02-11T18:11:11.801Z,3.28
2024-02-11T18:12:44.656Z,1.92
2024-02-11T18:14:19.031Z,0.68
2024-02-11T18:15:51.609Z,2.15
2024-02-11T18:17:24.171Z,1.43
2024-02-11T18:18:56.254Z,1.63
2024-02-11T18:20:28.974Z,1.10
2024-02-11T18:22:01.145Z,1.42
2024-02-11T18:23:35.352Z,1.63
2024-02-11T18:25:10.073Z,3.97
2024-02-11T18:26:42.937Z,5.20
2024-02-11T18:28:15.611Z,3.05
2024-02-11T18:29:47.815Z,1.27
2024-02-11T18:31:20.978Z,2.72
2024-02-11T18:32:52.977Z,1.40
2024-02-11T18:34:25.661Z,2.60
2024-02-11T18:35:57.143Z,3.80
2024-02-11T18:37:30.398Z,2.95
2024-02-11T18:39:03.373Z,1.55
2024-02-11T18:40:35.017Z,1.80
2024-02-11T18:42:08.975Z,1.63
2024-02-11T18:43:42.020Z,1.65
2024-02-11T18:45:14.455Z,4.65
2024-02-11T18:47:04.783Z,3.80
2024-02-11T18:48:36.857Z,2.30
2024-02-11T18:50:11.106Z,2.03
2024-02-11T18:51:42.703Z,2.00
2024-02-11T18:53:16.136Z,2.60
2024-02-11T18:54:48.221Z,2.25
2024-02-11T18:56:21.105Z,2.00
2024-02-11T18:57:54.591Z,1.48
2024-02-11T18:59:27.687Z,2.78
2024-02-11T19:01:01.235Z,2.20
2024-02-11T19:02:33.978Z,2.10
2024-02-11T19:04:06.988Z,4.87
2024-02-11T19:05:40.820Z,3.30
2024-02-11T19:07:14.673Z,2.20
2024-02-11T19:08:46.410Z,3.15
2024-02-11T19:10:20.484Z,1.90
2024-02-11T19:11:54.356Z,0.83
2024-02-11T19:13:28.723Z,3.80
2024-02-11T19:15:00.822Z,2.28
2024-02-11T19:16:33.735Z,2.75
2024-02-11T19:18:05.770Z,1.33
2024-02-11T19:19:38.938Z,0.93
2024-02-11T19:21:11.926Z,2.13
2024-02-11T19:22:45.204Z,1.42
2024-02-11T19:24:18.100Z,3.50
2024-02-11T19:25:51.697Z,1.02
2024-02-11T19:27:24.617Z,3.80
2024-02-11T19:28:58.183Z,1.95
2024-02-11T19:30:31.044Z,1.10
2024-02-11T19:32:07.116Z,1.88
2024-02-11T19:33:40.238Z,0.73
2024-02-11T19:35:12.484Z,2.70
2024-02-11T19:36:45.824Z,1.25
2024-02-11T19:38:19.821Z,2.53
2024-02-11T19:39:52.624Z,3.58
2024-02-11T19:41:26.042Z,3.60
2024-02-11T19:42:58.976Z,2.10
2024-02-11T19:44:33.805Z,1.73
2024-02-11T19:46:07.516Z,2.65
2024-02-11T19:47:40.389Z,1.50
2024-02-11T19:49:15.246Z,2.83
2024-02-11T19:50:47.666Z,0.93
2024-02-11T19:52:20.572Z,3.65
2024-02-11T19:53:52.562Z,2.80
2024-02-11T19:55:27.398Z,3.03
2024-02-11T19:56:59.142Z,2.75
2024-02-11T19:58:33.611Z,3.80
2024-02-11T20:00:12.740Z,1.67
2024-02-11T20:01:47.426Z,2.70
2024-02-11T20:03:20.367Z,2.88
2024-02-11T20:04:54.973Z,6.95
2024-02-11T20:06:27.115Z,2.87
2024-02-11T20:08:00.610Z,3.47
2024-02-11T20:09:36.182Z,2.63
2024-02-11T20:11:09.439Z,2.58
2024-02-11T20:12:42.701Z,1.92
2024-02-11T20:14:14.809Z,3.00
2024-02-11T20:15:49.323Z,2.38
2024-02-11T20:17:20.954Z,1.52
2024-02-11T20:18:53.784Z,4.88
2024-02-11T20:20:25.420Z,4.10
2024-02-11T20:21:58.699Z,2.40
2024-02-11T20:23:30.438Z,1.80
2024-02-11T20:25:04.241Z,4.10
2024-02-11T20:26:37.932Z,2.38
2024-02-11T20:28:13.844Z,3.65
2024-02-11T20:29:45.664Z,1.60
2024-02-11T20:31:21.832Z,2.05
2024-02-11T20:32:54.362Z,4.45
2024-02-11T20:34:27.369Z,2.38
2024-02-11T20:36:01.579Z,2.38
2024-02-11T20:37:39.245Z,3.13